createdAt,value
2018-03-17T00:01:47.466Z,12.40
2018-03-17T00:04:17.913Z,14.27
2018-03-17T00:06:47.798Z,14.43
2018-03-17T00:09:17.091Z,15.95
2018-03-17T00:11:46.174Z,16.50
2018-03-17T00:14:15.277Z,15.27
2018-03-17T00:16:44.019Z,15.13
2018-03-17T00:19:13.033Z,14.40
2018-03-17T00:21:42.594Z,13.73
2018-03-17T00:24:13.649Z,13.15
2018-03-17T00:26:43.104Z,14.52
2018-03-17T00:29:11.444Z,15.43
2018-03-17T00:31:39.624Z,13.35
2018-03-17T00:34:09.608Z,13.10
2018-03-17T00:36:37.748Z,14.15
2018-03-17T00:39:05.689Z,13.75
2018-03-17T00:41:33.776Z,13.40
2018-03-17T00:44:02.615Z,12.80
2018-03-17T00:46:31.546Z,13.57
2018-03-17T00:48:59.859Z,13.75
2018-03-17T00:51:28.173Z,13.15
2018-03-17T00:53:56.446Z,13.13
2018-03-17T00:56:25.008Z,13.35
2018-03-17T00:58:53.442Z,14.90
2018-03-17T01:01:21.747Z,13.85
2018-03-17T01:03:49.885Z,13.40
2018-03-17T01:06:18.032Z,13.43
2018-03-17T01:08:46.312Z,13.25
2018-03-17T01:11:15.407Z,14.25
2018-03-17T01:13:45.298Z,14.63
2018-03-17T01:16:13.458Z,13.60
2018-03-17T01:18:42.072Z,13.43
2018-03-17T01:21:09.961Z,14.20
2018-03-17T01:23:37.883Z,14.02
2018-03-17T01:26:05.774Z,14.02
2018-03-17T01:28:35.911Z,15.35
2018-03-17T01:31:04.463Z,12.82
2018-03-17T01:33:32.870Z,14.65
2018-03-17T01:36:01.232Z,14.40
2018-03-17T01:38:29.643Z,13.75
2018-03-17T01:40:57.841Z,15.40
2018-03-17T01:43:26.288Z,15.43
2018-03-17T01:45:54.548Z,14.80
2018-03-17T01:48:23.059Z,14.50
2018-03-17T01:50:52.420Z,14.85
2018-03-17T01:53:21.604Z,14.55
2018-03-17T01:55:51.069Z,17.05
2018-03-17T01:58:20.662Z,15.70
2018-03-17T02:00:49.503Z,14.80
2018-03-17T02:03:17.951Z,16.40
2018-03-17T02:05:45.882Z,16.10
2018-03-17T02:08:13.831Z,15.02
2018-03-17T02:10:41.716Z,16.48
2018-03-17T02:13:09.661Z,14.90
2018-03-17T02:15:37.560Z,15.65
2018-03-17T02:18:05.550Z,14.95
2018-03-17T02:20:33.446Z,14.93
2018-03-17T02:23:04.734Z,16.00
2018-03-17T02:25:32.629Z,16.17
2018-03-17T02:28:00.579Z,17.05
2018-03-17T02:30:28.463Z,17.25
2018-03-17T02:32:56.413Z,17.33
2018-03-17T02:35:24.311Z,18.30
2018-03-17T02:37:52.258Z,17.52
2018-03-17T02:40:20.159Z,15.52
2018-03-17T02:42:48.106Z,17.90
2018-03-17T02:45:16.010Z,18.85
2018-03-17T02:47:43.944Z,17.20
2018-03-17T02:50:11.856Z,19.50
2018-03-17T02:52:40.045Z,18.35
2018-03-17T02:55:07.917Z,18.00
2018-03-17T02:57:35.853Z,18.52
2018-03-17T03:00:04.576Z,17.50
2018-03-17T03:02:32.519Z,18.08
2018-03-17T03:05:00.417Z,18.50
2018-03-17T03:07:28.360Z,17.55
2018-03-17T03:09:56.242Z,18.67
2018-03-17T03:12:24.208Z,18.55
2018-03-17T03:14:52.103Z,19.10
2018-03-17T03:17:20.044Z,19.45
2018-03-17T03:19:47.926Z,18.90
2018-03-17T03:22:16.239Z,18.20
2018-03-17T03:24:44.128Z,20.30
2018-03-17T03:27:12.070Z,18.15
2018-03-17T03:29:39.952Z,18.40
2018-03-17T03:32:07.860Z,19.08
2018-03-17T03:34:36.558Z,16.50
2018-03-17T03:37:04.442Z,17.98
2018-03-17T03:39:32.387Z,17.83
2018-03-17T03:42:00.255Z,19.37
2018-03-17T03:44:28.191Z,18.27
2018-03-17T03:46:56.070Z,18.85
2018-03-17T03:49:23.997Z,17.35
2018-03-17T03:51:55.895Z,16.12
2018-03-17T03:54:23.823Z,15.90
2018-03-17T03:56:51.692Z,16.85
2018-03-17T03:59:19.628Z,16.67
2018-03-17T04:01:47.508Z,17.40
2018-03-17T04:04:15.445Z,16.58
2018-03-17T04:06:43.312Z,16.48
2018-03-17T04:09:11.240Z,16.02
2018-03-17T04:11:39.110Z,16.12
2018-03-17T04:14:07.039Z,16.55
2018-03-17T04:16:34.928Z,18.30
2018-03-17T04:19:02.852Z,16.42
2018-03-17T04:21:30.984Z,18.62
2018-03-17T04:23:58.909Z,18.52
2018-03-17T04:26:26.772Z,16.87
2018-03-17T04:28:59.224Z,19.05
2018-03-17T04:31:27.105Z,17.85
2018-03-17T04:33:55.068Z,16.55
2018-03-17T04:36:22.945Z,17.80
2018-03-17T04:38:50.860Z,17.33
2018-03-17T04:41:18.736Z,15.20
2018-03-17T04:43:46.660Z,16.15
2018-03-17T04:46:15.433Z,17.27
2018-03-17T04:48:43.359Z,14.75
2018-03-17T04:51:11.468Z,14.90
2018-03-17T04:53:39.392Z,14.48
2018-03-17T04:56:07.291Z,14.52
2018-03-17T04:58:35.220Z,13.60
2018-03-17T05:01:03.116Z,14.52
2018-03-17T05:03:31.101Z,14.15
2018-03-17T05:05:58.982Z,12.80
2018-03-17T05:08:26.912Z,14.63
2018-03-17T05:10:54.783Z,13.35
2018-03-17T05:13:22.707Z,11.95
2018-03-17T05:15:50.640Z,13.43
2018-03-17T05:18:18.567Z,13.15
2018-03-17T05:20:46.452Z,12.65
2018-03-17T05:23:14.381Z,12.73
2018-03-17T05:25:42.283Z,12.02
2018-03-17T05:28:10.206Z,10.00
2018-03-17T05:30:38.079Z,11.50
2018-03-17T05:33:06.000Z,12.00
2018-03-17T05:35:33.906Z,9.68
2018-03-17T05:38:01.888Z,10.40
2018-03-17T05:40:29.805Z,11.30
2018-03-17T05:42:57.959Z,12.85
2018-03-17T05:45:26.640Z,13.15
2018-03-17T05:47:55.346Z,11.38
2018-03-17T05:50:24.155Z,10.50
2018-03-17T05:52:52.066Z,12.02
2018-03-17T05:55:19.935Z,10.38
2018-03-17T05:57:47.859Z,11.00
2018-03-17T06:00:15.806Z,11.40
2018-03-17T06:02:43.752Z,10.13
2018-03-17T06:05:15.545Z,10.05
2018-03-17T06:07:47.671Z,10.52
2018-03-17T06:10:19.209Z,11.30
2018-03-17T06:12:51.567Z,10.75
2018-03-17T06:15:24.423Z,10.50
2018-03-17T06:17:56.646Z,9.45
2018-03-17T06:20:28.155Z,11.48
2018-03-17T06:22:59.962Z,10.70
2018-03-17T06:25:31.585Z,9.38
2018-03-17T06:28:03.202Z,10.82
2018-03-17T06:30:35.724Z,9.52
2018-03-17T06:33:08.691Z,10.10
2018-03-17T06:35:41.320Z,10.18
2018-03-17T06:38:13.491Z,10.20
2018-03-17T06:40:45.602Z,9.20
2018-03-17T06:43:20.003Z,9.23
2018-03-17T06:45:51.948Z,10.98
2018-03-17T06:48:25.380Z,9.55
2018-03-17T06:50:56.998Z,10.00
2018-03-17T06:53:30.217Z,11.10
2018-03-17T06:56:01.640Z,12.37
2018-03-17T06:58:33.087Z,13.15
2018-03-17T07:01:04.963Z,9.52
2018-03-17T07:03:38.153Z,9.35
2018-03-17T07:06:09.321Z,11.35
2018-03-17T07:08:41.167Z,8.90
2018-03-17T07:11:12.711Z,9.05
2018-03-17T07:13:44.482Z,9.95
2018-03-17T07:16:17.076Z,9.05
2018-03-17T07:18:49.182Z,9.40
2018-03-17T07:21:21.006Z,8.70
2018-03-17T07:23:53.302Z,9.60
2018-03-17T07:26:25.524Z,9.05
2018-03-17T07:28:57.378Z,8.35
2018-03-17T07:31:30.661Z,8.65
2018-03-17T07:34:02.711Z,8.57
2018-03-17T07:36:34.960Z,6.95
2018-03-17T07:39:07.329Z,7.55
2018-03-17T07:41:39.008Z,8.55
2018-03-17T07:44:07.139Z,7.75
2018-03-17T07:46:35.064Z,8.20
2018-03-17T07:49:02.986Z,7.90
2018-03-17T07:51:30.865Z,8.23
2018-03-17T07:54:03.125Z,7.55
2018-03-17T07:56:31.029Z,8.80
2018-03-17T07:59:02.097Z,7.35
2018-03-17T08:01:33.824Z,8.38
2018-03-17T08:04:05.976Z,7.57
2018-03-17T08:06:37.209Z,8.43
2018-03-17T08:09:09.376Z,7.60
2018-03-17T08:11:37.431Z,6.90
2018-03-17T08:14:05.364Z,7.43
2018-03-17T08:16:33.262Z,7.72
2018-03-17T08:19:01.184Z,7.50
2018-03-17T08:21:29.191Z,7.47
2018-03-17T08:23:57.111Z,6.55
2018-03-17T08:26:24.989Z,6.72
2018-03-17T08:28:52.909Z,6.82
2018-03-17T08:31:20.851Z,7.05
2018-03-17T08:33:48.797Z,8.55
2018-03-17T08:36:16.688Z,7.97
2018-03-17T08:38:44.620Z,7.35
2018-03-17T08:41:12.498Z,7.20
2018-03-17T08:43:44.154Z,7.37
2018-03-17T08:46:15.522Z,8.48
2018-03-17T08:48:46.831Z,7.82
2018-03-17T08:51:17.873Z,7.18
2018-03-17T08:53:45.964Z,6.32
2018-03-17T08:56:14.706Z,7.40
2018-03-17T08:58:46.937Z,7.15
2018-03-17T09:01:15.232Z,7.80
2018-03-17T09:03:44.046Z,6.80
2018-03-17T09:06:12.002Z,7.10
2018-03-17T09:08:40.442Z,6.68
2018-03-17T09:11:10.849Z,6.35
2018-03-17T09:13:38.798Z,6.25
2018-03-17T09:16:06.741Z,7.10
2018-03-17T09:18:34.668Z,7.45
2018-03-17T09:21:06.268Z,6.18
2018-03-17T09:23:34.226Z,7.35
2018-03-17T09:26:02.141Z,6.90
2018-03-17T09:28:31.259Z,7.90
2018-03-17T09:30:59.175Z,6.65
2018-03-17T09:33:27.055Z,6.80
2018-03-17T09:35:57.030Z,7.47
2018-03-17T09:38:24.934Z,7.22
2018-03-17T09:40:52.884Z,7.40
2018-03-17T09:43:20.753Z,6.70
2018-03-17T09:45:48.685Z,7.35
2018-03-17T09:48:16.620Z,6.68
2018-03-17T09:50:44.542Z,7.78
2018-03-17T09:53:12.428Z,7.90
2018-03-17T09:55:40.466Z,7.12
2018-03-17T09:58:09.620Z,6.93
2018-03-17T10:00:37.553Z,7.20
2018-03-17T10:03:05.442Z,7.90
2018-03-17T10:05:33.359Z,6.45
2018-03-17T10:08:01.241Z,7.40
2018-03-17T10:10:29.186Z,7.00
2018-03-17T10:13:00.418Z,7.57
2018-03-17T10:15:28.376Z,6.90
2018-03-17T10:17:56.280Z,7.40
2018-03-17T10:20:24.209Z,7.30
2018-03-17T10:22:52.096Z,5.85
2018-03-17T10:25:20.081Z,6.65
2018-03-17T10:27:47.957Z,6.68
2018-03-17T10:30:15.909Z,6.30
2018-03-17T10:32:43.824Z,8.10
2018-03-17T10:35:11.749Z,6.43
2018-03-17T10:37:39.637Z,7.28
2018-03-17T10:40:07.590Z,7.15
2018-03-17T10:42:38.856Z,6.90
2018-03-17T10:45:06.896Z,7.20
2018-03-17T10:47:34.768Z,6.47
2018-03-17T10:50:02.718Z,7.50
2018-03-17T10:52:30.658Z,7.20
2018-03-17T10:54:58.609Z,7.20
2018-03-17T10:57:26.559Z,7.47
2018-03-17T10:59:55.362Z,7.45
2018-03-17T11:02:23.300Z,7.50
2018-03-17T11:04:51.230Z,7.07
2018-03-17T11:07:19.109Z,6.43
2018-03-17T11:09:47.051Z,8.23
2018-03-17T11:12:14.930Z,7.45
2018-03-17T11:14:42.873Z,6.50
2018-03-17T11:17:10.766Z,6.93
2018-03-17T11:19:38.701Z,7.40
2018-03-17T11:22:07.389Z,7.15
2018-03-17T11:24:35.309Z,6.90
2018-03-17T11:27:03.266Z,7.20
2018-03-17T11:29:31.207Z,8.15
2018-03-17T11:32:04.001Z,7.62
2018-03-17T11:34:31.949Z,7.78
2018-03-17T11:37:00.607Z,8.27
2018-03-17T11:39:28.540Z,7.12
2018-03-17T11:41:56.468Z,7.00
2018-03-17T11:44:24.406Z,7.55
2018-03-17T11:46:52.357Z,8.82
2018-03-17T11:49:20.309Z,8.07
2018-03-17T11:51:48.199Z,8.38
2018-03-17T11:54:16.154Z,10.88
2018-03-17T11:56:44.057Z,8.32
2018-03-17T11:59:12.018Z,8.48
2018-03-17T12:01:39.907Z,8.43
2018-03-17T12:04:07.874Z,8.10
2018-03-17T12:06:35.805Z,7.15
2018-03-17T12:09:03.844Z,8.13
2018-03-17T12:11:32.557Z,7.50
2018-03-17T12:14:00.442Z,7.43
2018-03-17T12:16:28.384Z,7.60
2018-03-17T12:18:56.274Z,10.40
2018-03-17T12:21:24.243Z,10.00
2018-03-17T12:23:52.122Z,8.20
2018-03-17T12:26:20.101Z,7.68
2018-03-17T12:28:47.997Z,7.97
2018-03-17T12:31:17.165Z,7.93
2018-03-17T12:33:45.053Z,7.87
2018-03-17T12:36:13.009Z,11.68
2018-03-17T12:38:40.910Z,8.85
2018-03-17T12:41:08.866Z,8.65
2018-03-17T12:43:36.784Z,6.85
2018-03-17T12:46:04.692Z,7.62
2018-03-17T12:48:32.650Z,8.77
2018-03-17T12:51:00.565Z,7.72
2018-03-17T12:53:28.514Z,8.70
2018-03-17T12:55:56.487Z,8.70
2018-03-17T12:58:24.391Z,7.62
2018-03-17T13:00:52.336Z,9.60
2018-03-17T13:03:20.342Z,6.75
2018-03-17T13:05:48.272Z,7.22
2018-03-17T13:08:16.156Z,7.28
2018-03-17T13:10:44.084Z,7.40
2018-03-17T13:13:11.962Z,6.10
2018-03-17T13:15:39.903Z,7.68
2018-03-17T13:18:07.816Z,8.57
2018-03-17T13:20:35.794Z,7.75
2018-03-17T13:23:24.464Z,8.68
2018-03-17T13:25:52.410Z,7.78
2018-03-17T13:28:37.243Z,7.68
2018-03-17T13:31:05.188Z,7.32
2018-03-17T13:33:33.104Z,7.00
2018-03-17T13:39:05.179Z,7.20
2018-03-17T13:41:33.243Z,6.62
2018-03-17T13:44:02.879Z,8.35
2018-03-17T13:46:34.345Z,6.93
2018-03-17T13:49:02.638Z,7.97
2018-03-17T13:51:30.683Z,8.05
2018-03-17T13:53:59.498Z,8.50
2018-03-17T13:56:27.688Z,7.12
2018-03-17T13:58:58.725Z,7.28
2018-03-17T14:01:27.025Z,7.40
2018-03-17T14:03:55.285Z,7.12
2018-03-17T14:06:23.482Z,7.82
2018-03-17T14:08:51.523Z,7.80
2018-03-17T14:11:21.900Z,6.82
2018-03-17T14:13:52.552Z,7.20
2018-03-17T14:16:20.792Z,7.15
2018-03-17T14:18:48.847Z,8.25
2018-03-17T14:21:18.158Z,7.62
2018-03-17T14:23:46.917Z,7.62
2018-03-17T14:26:15.160Z,8.45
2018-03-17T14:28:43.226Z,7.50
2018-03-17T14:31:11.371Z,8.63
2018-03-17T14:33:39.539Z,8.23
2018-03-17T14:36:08.394Z,7.18
2018-03-17T14:38:36.648Z,7.35
2018-03-17T14:41:07.091Z,6.85
2018-03-17T14:43:35.114Z,7.25
2018-03-17T14:46:03.527Z,10.05
2018-03-17T14:48:35.001Z,10.13
2018-03-17T14:51:08.119Z,7.95
2018-03-17T14:53:38.843Z,7.95
2018-03-17T14:56:11.302Z,8.38
2018-03-17T14:58:42.360Z,7.78
2018-03-17T15:01:14.641Z,7.82
2018-03-17T15:03:46.434Z,7.55
2018-03-17T15:06:18.318Z,9.18
2018-03-17T15:08:50.109Z,8.15
2018-03-17T15:11:22.019Z,8.48
2018-03-17T15:13:50.479Z,7.05
2018-03-17T15:16:23.162Z,7.87
2018-03-17T15:18:55.092Z,7.50
2018-03-17T15:21:28.828Z,6.68
2018-03-17T15:24:00.254Z,6.75
2018-03-17T15:26:32.508Z,7.90
2018-03-17T15:29:05.486Z,7.87
2018-03-17T15:31:37.425Z,6.95
2018-03-17T15:34:10.352Z,9.20
2018-03-17T15:36:42.282Z,8.90
2018-03-17T15:39:11.735Z,8.40
2018-03-17T15:41:43.577Z,7.47
2018-03-17T15:44:16.677Z,8.07
2018-03-17T15:46:48.447Z,7.80
2018-03-17T15:49:20.228Z,7.80
2018-03-17T15:51:48.894Z,7.53
2018-03-17T15:54:16.954Z,7.80
2018-03-17T15:56:45.022Z,7.65
2018-03-17T15:59:14.010Z,7.87
2018-03-17T16:01:42.865Z,6.85
2018-03-17T16:04:12.658Z,7.80
2018-03-17T16:06:40.808Z,8.57
2018-03-17T16:09:08.897Z,7.20
2018-03-17T16:11:37.128Z,6.75
2018-03-17T16:14:05.275Z,7.57
2018-03-17T16:16:33.624Z,7.35
2018-03-17T16:19:01.635Z,7.20
2018-03-17T16:21:31.232Z,7.85
2018-03-17T16:23:59.432Z,8.32
2018-03-17T16:26:27.765Z,7.37
2018-03-17T16:28:55.902Z,9.55
2018-03-17T16:31:24.014Z,8.77
2018-03-17T16:33:52.175Z,8.00
2018-03-17T16:36:20.274Z,8.18
2018-03-17T16:38:48.209Z,7.80
2018-03-17T16:41:16.411Z,7.70
2018-03-17T16:43:44.475Z,7.47
2018-03-17T16:46:12.724Z,7.80
2018-03-17T16:48:41.852Z,7.22
2018-03-17T16:51:13.712Z,7.72
2018-03-17T16:53:42.070Z,8.35
2018-03-17T16:56:10.322Z,7.07
2018-03-17T16:58:38.635Z,8.20
2018-03-17T17:01:06.763Z,6.80
2018-03-17T17:03:34.840Z,7.57
2018-03-17T17:06:03.722Z,7.20
2018-03-17T17:08:31.820Z,7.70
2018-03-17T17:10:59.994Z,8.13
2018-03-17T17:13:29.790Z,7.32
2018-03-17T17:15:58.597Z,8.30
2018-03-17T17:18:28.559Z,7.72
2018-03-17T17:20:56.886Z,8.10
2018-03-17T17:23:29.011Z,7.28
2018-03-17T17:25:59.242Z,8.57
2018-03-17T17:28:33.014Z,7.95
2018-03-17T17:31:01.154Z,8.43
2018-03-17T17:33:30.291Z,8.63
2018-03-17T17:35:58.711Z,7.62
2018-03-17T17:38:26.855Z,8.48
2018-03-17T17:40:55.771Z,8.73
2018-03-17T17:43:23.755Z,7.60
2018-03-17T17:45:52.781Z,9.00
2018-03-17T17:48:20.794Z,9.70
2018-03-17T17:50:49.074Z,7.68
2018-03-17T17:53:17.513Z,8.18
2018-03-17T17:55:46.010Z,8.60
2018-03-17T17:58:14.303Z,8.82
2018-03-17T18:00:42.340Z,9.55
2018-03-17T18:03:11.061Z,9.43
2018-03-17T18:05:39.063Z,8.40
2018-03-17T18:08:07.242Z,8.85
2018-03-17T18:10:35.396Z,8.00
2018-03-17T18:13:03.469Z,7.95
2018-03-17T18:15:31.593Z,7.70
2018-03-17T18:17:59.689Z,8.43
2018-03-17T18:20:29.590Z,8.80
2018-03-17T18:23:01.570Z,7.45
2018-03-17T18:25:29.763Z,8.05
2018-03-17T18:27:57.861Z,8.55
2018-03-17T18:30:25.925Z,9.65
2018-03-17T18:32:54.026Z,8.60
2018-03-17T18:35:22.785Z,7.45
2018-03-17T18:37:51.005Z,8.07
2018-03-17T18:40:19.123Z,8.48
2018-03-17T18:42:47.212Z,8.27
2018-03-17T18:45:15.236Z,7.43
2018-03-17T18:47:43.395Z,7.85
2018-03-17T18:50:12.194Z,8.80
2018-03-17T18:52:40.419Z,8.50
2018-03-17T18:55:08.570Z,8.80
2018-03-17T18:57:36.573Z,8.30
2018-03-17T19:00:04.822Z,8.68
2018-03-17T19:02:33.162Z,7.50
2018-03-17T19:05:01.239Z,7.57
2018-03-17T19:07:29.328Z,8.02
2018-03-17T19:09:57.347Z,9.55
2018-03-17T19:12:25.403Z,7.47
2018-03-17T19:14:53.700Z,8.10
2018-03-17T19:17:25.171Z,8.20
2018-03-17T19:19:53.320Z,7.40
2018-03-17T19:22:21.442Z,7.65
2018-03-17T19:24:49.415Z,9.40
2018-03-17T19:27:17.739Z,8.45
2018-03-17T19:29:45.658Z,7.57
2018-03-17T19:32:14.811Z,8.48
2018-03-17T19:34:42.733Z,9.48
2018-03-17T19:37:10.711Z,9.57
2018-03-17T19:39:47.197Z,8.80
2018-03-17T19:42:19.342Z,7.00
2018-03-17T19:44:48.166Z,8.10
2018-03-17T19:47:16.147Z,7.45
2018-03-17T19:49:44.084Z,8.63
2018-03-17T19:52:12.028Z,9.40
2018-03-17T19:54:40.722Z,8.80
2018-03-17T19:57:08.762Z,7.10
2018-03-17T19:59:39.503Z,8.23
2018-03-17T20:02:09.800Z,8.38
2018-03-17T20:04:39.140Z,8.85
2018-03-17T20:07:08.120Z,8.80
2018-03-17T20:09:37.329Z,8.30
2018-03-17T20:12:05.837Z,8.45
2018-03-17T20:14:34.812Z,9.05
2018-03-17T20:17:03.316Z,9.75
2018-03-17T20:19:33.410Z,7.82
2018-03-17T20:22:06.341Z,8.18
2018-03-17T20:24:35.270Z,9.35
2018-03-17T20:27:04.037Z,8.93
2018-03-17T20:29:32.721Z,10.90
2018-03-17T20:32:01.193Z,8.85
2018-03-17T20:34:30.267Z,9.32
2018-03-17T20:36:59.786Z,8.38
2018-03-17T20:39:28.463Z,7.85
2018-03-17T20:41:57.780Z,8.82
2018-03-17T20:44:26.189Z,8.50
2018-03-17T20:46:55.132Z,7.95
2018-03-17T20:49:23.351Z,8.48
2018-03-17T20:51:52.252Z,8.80
2018-03-17T20:54:21.136Z,9.15
2018-03-17T20:56:49.967Z,8.88
2018-03-17T20:59:19.767Z,8.25
2018-03-17T21:01:48.449Z,8.55
2018-03-17T21:04:16.905Z,9.20
2018-03-17T21:06:46.051Z,8.63
2018-03-17T21:09:15.342Z,8.90
2018-03-17T21:11:44.828Z,8.52
2018-03-17T21:14:13.729Z,9.25
2018-03-17T21:16:42.913Z,8.20
2018-03-17T21:19:11.982Z,8.23
2018-03-17T21:21:40.385Z,7.65
2018-03-17T21:24:08.960Z,9.13
2018-03-17T21:26:37.035Z,9.57
2018-03-17T21:29:04.946Z,8.95
2018-03-17T21:31:37.566Z,10.73
2018-03-17T21:34:06.339Z,9.88
2018-03-17T21:36:34.255Z,10.65
2018-03-17T21:39:02.216Z,13.38
2018-03-17T21:41:30.163Z,10.30
2018-03-17T21:43:58.063Z,9.20
2018-03-17T21:46:28.534Z,9.50
2018-03-17T21:48:57.202Z,9.75
2018-03-17T21:51:25.280Z,10.23
2018-03-17T21:53:53.216Z,11.48
2018-03-17T21:56:21.136Z,11.05
2018-03-17T21:58:53.523Z,11.95
2018-03-17T22:01:21.558Z,10.70
2018-03-17T22:03:49.496Z,14.13
2018-03-17T22:06:17.372Z,10.60
2018-03-17T22:08:46.876Z,10.07
2018-03-17T22:11:15.901Z,10.90
2018-03-17T22:13:44.654Z,11.70
2018-03-17T22:16:13.449Z,11.35
2018-03-17T22:18:41.719Z,9.98
2018-03-17T22:21:10.125Z,13.75
2018-03-17T22:23:38.061Z,9.60
2018-03-17T22:26:06.385Z,9.13
2018-03-17T22:28:34.312Z,9.80
2018-03-17T22:31:02.194Z,9.88
2018-03-17T22:33:30.351Z,9.95
2018-03-17T22:36:02.110Z,10.50
2018-03-17T22:38:30.249Z,8.70
2018-03-17T22:40:58.136Z,12.60
2018-03-17T22:43:26.100Z,9.30
2018-03-17T22:45:54.054Z,8.85
2018-03-17T22:48:22.133Z,9.48
2018-03-17T22:50:50.044Z,11.05
2018-03-17T22:53:18.058Z,9.75
2018-03-17T22:55:46.757Z,10.43
2018-03-17T22:58:15.410Z,10.80
2018-03-17T23:00:43.381Z,11.12
2018-03-17T23:03:11.381Z,9.15
2018-03-17T23:05:39.355Z,9.20
2018-03-17T23:08:08.016Z,10.45
2018-03-17T23:10:35.962Z,9.68
2018-03-17T23:13:03.859Z,9.77
2018-03-17T23:15:31.869Z,10.23
2018-03-17T23:17:59.766Z,9.02
2018-03-17T23:20:27.710Z,10.70
2018-03-17T23:22:56.449Z,10.10
2018-03-17T23:25:24.372Z,10.32
2018-03-17T23:27:52.248Z,10.80
2018-03-17T23:30:20.239Z,9.93
2018-03-17T23:32:48.152Z,9.70
2018-03-17T23:35:16.846Z,11.60
2018-03-17T23:37:44.717Z,9.95
2018-03-17T23:40:12.642Z,10.65
2018-03-17T23:42:40.576Z,10.00
2018-03-17T23:45:08.501Z,9.10
2018-03-17T23:47:37.308Z,8.63
2018-03-17T23:50:05.258Z,9.45
2018-03-17T23:52:33.488Z,10.52
2018-03-17T23:55:01.426Z,10.13
2018-03-17T23:57:29.364Z,10.43
2018-03-17T23:59:57.305Z,10.80
